sensor_id;sensor_type;location;lat;lon;timestamp;P1;durP1;ratioP1;P2;durP2;ratioP2
66521;SDS011;53349;53.538;8.584;2022-08-20T00:02:18;14.85;;;8.15;;
66521;SDS011;53349;53.538;8.584;2022-08-20T00:04:44;13.75;;;8.20;;
66521;SDS011;53349;53.538;8.584;2022-08-20T00:07:10;15.40;;;9.00;;
66521;SDS011;53349;53.538;8.584;2022-08-20T00:09:36;14.87;;;8.30;;
66521;SDS011;53349;53.538;8.584;2022-08-20T00:12:02;15.85;;;9.52;;
66521;SDS011;53349;53.538;8.584;2022-08-20T00:14:29;16.10;;;9.00;;
66521;SDS011;53349;53.538;8.584;2022-08-20T00:16:55;19.77;;;10.13;;
66521;SDS011;53349;53.538;8.584;2022-08-20T00:19:20;17.23;;;9.80;;
66521;SDS011;53349;53.538;8.584;2022-08-20T00:21:47;17.88;;;9.40;;
66521;SDS011;53349;53.538;8.584;2022-08-20T00:24:12;18.57;;;10.70;;
66521;SDS011;53349;53.538;8.584;2022-08-20T00:26:38;19.07;;;9.90;;
66521;SDS011;53349;53.538;8.584;2022-08-20T00:29:03;18.90;;;10.30;;
66521;SDS011;53349;53.538;8.584;2022-08-20T00:31:29;18.73;;;10.13;;
66521;SDS011;53349;53.538;8.584;2022-08-20T00:33:54;18.47;;;9.73;;
66521;SDS011;53349;53.538;8.584;2022-08-20T00:36:20;17.57;;;9.50;;
66521;SDS011;53349;53.538;8.584;2022-08-20T00:38:46;17.58;;;9.50;;
66521;SDS011;53349;53.538;8.584;2022-08-20T00:41:22;17.60;;;8.87;;
66521;SDS011;53349;53.538;8.584;2022-08-20T00:43:51;17.15;;;9.05;;
66521;SDS011;53349;53.538;8.584;2022-08-20T00:46:30;14.63;;;8.25;;
66521;SDS011;53349;53.538;8.584;2022-08-20T00:48:56;17.02;;;8.93;;
66521;SDS011;53349;53.538;8.584;2022-08-20T00:51:36;18.00;;;9.45;;
66521;SDS011;53349;53.538;8.584;2022-08-20T00:56:47;16.98;;;8.63;;
66521;SDS011;53349;53.538;8.584;2022-08-20T00:59:20;17.95;;;9.23;;
66521;SDS011;53349;53.538;8.584;2022-08-20T01:01:49;19.38;;;9.18;;
66521;SDS011;53349;53.538;8.584;2022-08-20T01:04:16;17.10;;;9.77;;
66521;SDS011;53349;53.538;8.584;2022-08-20T01:06:42;15.83;;;8.80;;
66521;SDS011;53349;53.538;8.584;2022-08-20T01:09:09;15.95;;;9.18;;
66521;SDS011;53349;53.538;8.584;2022-08-20T01:11:35;15.02;;;8.88;;
66521;SDS011;53349;53.538;8.584;2022-08-20T01:14:04;18.77;;;8.98;;
66521;SDS011;53349;53.538;8.584;2022-08-20T01:16:53;15.10;;;8.60;;
66521;SDS011;53349;53.538;8.584;2022-08-20T01:19:24;14.53;;;8.80;;
66521;SDS011;53349;53.538;8.584;2022-08-20T01:21:53;18.58;;;8.88;;
66521;SDS011;53349;53.538;8.584;2022-08-20T01:24:21;14.57;;;8.57;;
66521;SDS011;53349;53.538;8.584;2022-08-20T01:26:52;18.75;;;10.18;;
66521;SDS011;53349;53.538;8.584;2022-08-20T01:29:24;20.17;;;10.45;;
66521;SDS011;53349;53.538;8.584;2022-08-20T01:31:56;17.83;;;10.10;;
66521;SDS011;53349;53.538;8.584;2022-08-20T01:34:25;16.92;;;9.90;;
66521;SDS011;53349;53.538;8.584;2022-08-20T01:36:52;20.85;;;10.50;;
66521;SDS011;53349;53.538;8.584;2022-08-20T01:39:20;18.92;;;10.50;;
66521;SDS011;53349;53.538;8.584;2022-08-20T01:41:54;19.00;;;10.43;;
66521;SDS011;53349;53.538;8.584;2022-08-20T01:44:27;18.60;;;10.88;;
66521;SDS011;53349;53.538;8.584;2022-08-20T01:46:54;19.25;;;10.20;;
66521;SDS011;53349;53.538;8.584;2022-08-20T01:49:23;17.17;;;9.75;;
66521;SDS011;53349;53.538;8.584;2022-08-20T01:51:52;19.77;;;10.30;;
66521;SDS011;53349;53.538;8.584;2022-08-20T01:54:19;19.67;;;9.67;;
66521;SDS011;53349;53.538;8.584;2022-08-20T01:56:59;19.23;;;10.15;;
66521;SDS011;53349;53.538;8.584;2022-08-20T01:59:28;15.80;;;9.23;;
66521;SDS011;53349;53.538;8.584;2022-08-20T02:01:54;17.75;;;9.57;;
66521;SDS011;53349;53.538;8.584;2022-08-20T02:04:20;16.40;;;9.20;;
66521;SDS011;53349;53.538;8.584;2022-08-20T02:06:47;20.20;;;9.52;;
66521;SDS011;53349;53.538;8.584;2022-08-20T02:09:16;15.27;;;9.00;;
66521;SDS011;53349;53.538;8.584;2022-08-20T02:11:42;16.13;;;9.15;;
66521;SDS011;53349;53.538;8.584;2022-08-20T02:14:08;17.30;;;9.07;;
66521;SDS011;53349;53.538;8.584;2022-08-20T02:16:36;15.40;;;8.87;;
66521;SDS011;53349;53.538;8.584;2022-08-20T02:19:07;16.98;;;8.55;;
66521;SDS011;53349;53.538;8.584;2022-08-20T02:21:42;17.38;;;9.07;;
66521;SDS011;53349;53.538;8.584;2022-08-20T02:24:11;15.40;;;8.18;;
66521;SDS011;53349;53.538;8.584;2022-08-20T02:26:36;14.83;;;8.53;;
66521;SDS011;53349;53.538;8.584;2022-08-20T02:29:04;13.70;;;8.35;;
66521;SDS011;53349;53.538;8.584;2022-08-20T02:31:31;17.23;;;8.63;;
66521;SDS011;53349;53.538;8.584;2022-08-20T02:33:57;17.87;;;8.97;;
66521;SDS011;53349;53.538;8.584;2022-08-20T02:36:22;15.77;;;9.15;;
66521;SDS011;53349;53.538;8.584;2022-08-20T02:38:47;15.43;;;9.03;;
66521;SDS011;53349;53.538;8.584;2022-08-20T02:41:13;15.90;;;8.47;;
66521;SDS011;53349;53.538;8.584;2022-08-20T02:43:39;16.50;;;9.80;;
66521;SDS011;53349;53.538;8.584;2022-08-20T02:46:05;16.93;;;9.33;;
66521;SDS011;53349;53.538;8.584;2022-08-20T02:48:31;20.02;;;9.60;;
66521;SDS011;53349;53.538;8.584;2022-08-20T02:51:01;17.58;;;8.98;;
66521;SDS011;53349;53.538;8.584;2022-08-20T02:53:30;16.52;;;9.27;;
66521;SDS011;53349;53.538;8.584;2022-08-20T02:55:59;17.42;;;9.52;;
66521;SDS011;53349;53.538;8.584;2022-08-20T02:58:25;17.60;;;9.57;;
66521;SDS011;53349;53.538;8.584;2022-08-20T03:00:50;20.60;;;9.90;;
66521;SDS011;53349;53.538;8.584;2022-08-20T03:03:16;16.77;;;9.27;;
66521;SDS011;53349;53.538;8.584;2022-08-20T03:05:46;19.13;;;9.60;;
66521;SDS011;53349;53.538;8.584;2022-08-20T03:08:15;18.25;;;8.85;;
66521;SDS011;53349;53.538;8.584;2022-08-20T03:10:42;15.85;;;9.40;;
66521;SDS011;53349;53.538;8.584;2022-08-20T03:13:09;17.20;;;9.63;;
66521;SDS011;53349;53.538;8.584;2022-08-20T03:15:36;18.40;;;9.82;;
66521;SDS011;53349;53.538;8.584;2022-08-20T03:18:06;16.90;;;9.65;;
66521;SDS011;53349;53.538;8.584;2022-08-20T03:20:33;16.17;;;9.68;;
66521;SDS011;53349;53.538;8.584;2022-08-20T03:22:58;17.53;;;9.90;;
66521;SDS011;53349;53.538;8.584;2022-08-20T03:25:24;16.27;;;10.02;;
66521;SDS011;53349;53.538;8.584;2022-08-20T03:27:50;18.50;;;9.10;;
66521;SDS011;53349;53.538;8.584;2022-08-20T03:30:16;16.37;;;9.53;;
66521;SDS011;53349;53.538;8.584;2022-08-20T03:32:43;16.65;;;9.50;;
66521;SDS011;53349;53.538;8.584;2022-08-20T03:35:10;17.20;;;9.30;;
66521;SDS011;53349;53.538;8.584;2022-08-20T03:37:38;17.48;;;9.82;;
66521;SDS011;53349;53.538;8.584;2022-08-20T03:40:05;17.25;;;9.68;;
66521;SDS011;53349;53.538;8.584;2022-08-20T03:42:33;18.50;;;9.82;;
66521;SDS011;53349;53.538;8.584;2022-08-20T03:44:59;18.87;;;10.13;;
66521;SDS011;53349;53.538;8.584;2022-08-20T03:47:25;20.27;;;10.73;;
66521;SDS011;53349;53.538;8.584;2022-08-20T03:49:51;19.48;;;10.32;;
66521;SDS011;53349;53.538;8.584;2022-08-20T03:52:23;17.95;;;9.68;;
66521;SDS011;53349;53.538;8.584;2022-08-20T03:54:48;18.93;;;9.87;;
66521;SDS011;53349;53.538;8.584;2022-08-20T03:57:14;18.65;;;10.30;;
66521;SDS011;53349;53.538;8.584;2022-08-20T03:59:40;17.53;;;9.93;;
66521;SDS011;53349;53.538;8.584;2022-08-20T04:02:08;24.60;;;10.38;;
66521;SDS011;53349;53.538;8.584;2022-08-20T04:04:38;18.23;;;9.65;;
66521;SDS011;53349;53.538;8.584;2022-08-20T04:07:12;19.20;;;10.05;;
66521;SDS011;53349;53.538;8.584;2022-08-20T04:09:39;16.40;;;9.35;;
66521;SDS011;53349;53.538;8.584;2022-08-20T04:12:05;17.97;;;9.30;;
66521;SDS011;53349;53.538;8.584;2022-08-20T04:14:32;19.17;;;10.35;;
66521;SDS011;53349;53.538;8.584;2022-08-20T04:17:02;18.85;;;9.07;;
66521;SDS011;53349;53.538;8.584;2022-08-20T04:19:29;16.13;;;9.37;;
66521;SDS011;53349;53.538;8.584;2022-08-20T04:21:54;18.13;;;9.67;;
66521;SDS011;53349;53.538;8.584;2022-08-20T04:24:20;16.55;;;9.05;;
66521;SDS011;53349;53.538;8.584;2022-08-20T04:26:45;17.60;;;8.83;;
66521;SDS011;53349;53.538;8.584;2022-08-20T04:29:10;16.90;;;9.20;;
66521;SDS011;53349;53.538;8.584;2022-08-20T04:31:36;17.33;;;8.90;;
66521;SDS011;53349;53.538;8.584;2022-08-20T04:34:02;15.77;;;8.40;;
66521;SDS011;53349;53.538;8.584;2022-08-20T04:36:32;16.23;;;8.90;;
66521;SDS011;53349;53.538;8.584;2022-08-20T04:38:59;14.43;;;8.25;;
66521;SDS011;53349;53.538;8.584;2022-08-20T04:41:24;16.80;;;8.50;;
66521;SDS011;53349;53.538;8.584;2022-08-20T04:43:50;16.10;;;8.27;;
66521;SDS011;53349;53.538;8.584;2022-08-20T04:46:17;13.40;;;7.47;;
66521;SDS011;53349;53.538;8.584;2022-08-20T04:48:43;13.97;;;7.67;;
66521;SDS011;53349;53.538;8.584;2022-08-20T04:51:09;12.17;;;6.77;;
66521;SDS011;53349;53.538;8.584;2022-08-20T04:53:34;9.13;;;5.20;;
66521;SDS011;53349;53.538;8.584;2022-08-20T04:56:00;7.60;;;3.90;;
66521;SDS011;53349;53.538;8.584;2022-08-20T04:58:28;7.25;;;3.20;;
66521;SDS011;53349;53.538;8.584;2022-08-20T05:00:56;5.68;;;3.20;;
66521;SDS011;53349;53.538;8.584;2022-08-20T05:03:23;6.07;;;2.87;;
66521;SDS011;53349;53.538;8.584;2022-08-20T05:05:48;6.50;;;2.40;;
66521;SDS011;53349;53.538;8.584;2022-08-20T05:08:14;4.97;;;2.47;;
66521;SDS011;53349;53.538;8.584;2022-08-20T05:10:42;6.30;;;2.45;;
66521;SDS011;53349;53.538;8.584;2022-08-20T05:13:08;4.28;;;2.30;;
66521;SDS011;53349;53.538;8.584;2022-08-20T05:15:34;5.90;;;2.80;;
66521;SDS011;53349;53.538;8.584;2022-08-20T05:18:02;5.20;;;2.90;;
66521;SDS011;53349;53.538;8.584;2022-08-20T05:20:30;8.25;;;3.10;;
66521;SDS011;53349;53.538;8.584;2022-08-20T05:22:57;6.25;;;3.20;;
66521;SDS011;53349;53.538;8.584;2022-08-20T05:25:24;7.13;;;4.53;;
66521;SDS011;53349;53.538;8.584;2022-08-20T05:27:57;9.90;;;5.57;;
66521;SDS011;53349;53.538;8.584;2022-08-20T05:30:25;10.32;;;6.32;;
66521;SDS011;53349;53.538;8.584;2022-08-20T05:32:57;12.95;;;5.20;;
66521;SDS011;53349;53.538;8.584;2022-08-20T05:35:27;9.95;;;3.83;;
66521;SDS011;53349;53.538;8.584;2022-08-20T05:37:53;8.18;;;3.03;;
66521;SDS011;53349;53.538;8.584;2022-08-20T05:40:21;9.07;;;3.27;;
66521;SDS011;53349;53.538;8.584;2022-08-20T05:42:48;6.97;;;2.97;;
66521;SDS011;53349;53.538;8.584;2022-08-20T05:45:13;10.00;;;2.80;;
66521;SDS011;53349;53.538;8.584;2022-08-20T05:47:42;7.20;;;2.92;;
66521;SDS011;53349;53.538;8.584;2022-08-20T05:50:09;7.13;;;2.58;;
66521;SDS011;53349;53.538;8.584;2022-08-20T05:52:35;7.57;;;2.93;;
66521;SDS011;53349;53.538;8.584;2022-08-20T05:55:02;8.18;;;2.78;;
66521;SDS011;53349;53.538;8.584;2022-08-20T05:57:29;9.02;;;2.67;;
66521;SDS011;53349;53.538;8.584;2022-08-20T05:59:54;10.87;;;2.97;;
66521;SDS011;53349;53.538;8.584;2022-08-20T06:02:20;8.93;;;2.63;;
66521;SDS011;53349;53.538;8.584;2022-08-20T06:05:11;7.63;;;2.40;;
66521;SDS011;53349;53.538;8.584;2022-08-20T06:07:37;9.10;;;3.30;;
66521;SDS011;53349;53.538;8.584;2022-08-20T06:10:04;9.90;;;2.37;;
66521;SDS011;53349;53.538;8.584;2022-08-20T06:12:30;5.43;;;2.10;;
66521;SDS011;53349;53.538;8.584;2022-08-20T06:14:56;10.27;;;2.58;;
66521;SDS011;53349;53.538;8.584;2022-08-20T06:17:22;7.85;;;2.63;;
66521;SDS011;53349;53.538;8.584;2022-08-20T06:19:48;7.50;;;2.10;;
66521;SDS011;53349;53.538;8.584;2022-08-20T06:22:14;8.88;;;2.33;;
66521;SDS011;53349;53.538;8.584;2022-08-20T06:24:40;6.73;;;2.47;;
66521;SDS011;53349;53.538;8.584;2022-08-20T06:27:06;8.00;;;2.30;;
66521;SDS011;53349;53.538;8.584;2022-08-20T06:29:31;7.77;;;2.47;;
66521;SDS011;53349;53.538;8.584;2022-08-20T06:31:57;8.63;;;2.35;;
66521;SDS011;53349;53.538;8.584;2022-08-20T06:34:23;8.33;;;2.30;;
66521;SDS011;53349;53.538;8.584;2022-08-20T06:36:52;8.10;;;2.13;;
66521;SDS011;53349;53.538;8.584;2022-08-20T06:39:21;7.75;;;2.20;;
66521;SDS011;53349;53.538;8.584;2022-08-20T06:41:49;8.40;;;2.38;;
66521;SDS011;53349;53.538;8.584;2022-08-20T06:44:16;8.40;;;2.20;;
66521;SDS011;53349;53.538;8.584;2022-08-20T06:46:42;8.55;;;2.28;;
66521;SDS011;53349;53.538;8.584;2022-08-20T06:49:08;9.87;;;3.10;;
66521;SDS011;53349;53.538;8.584;2022-08-20T06:51:34;7.15;;;2.45;;
66521;SDS011;53349;53.538;8.584;2022-08-20T06:54:01;9.45;;;2.10;;
66521;SDS011;53349;53.538;8.584;2022-08-20T06:56:27;8.23;;;2.30;;
66521;SDS011;53349;53.538;8.584;2022-08-20T06:58:52;7.40;;;2.50;;
66521;SDS011;53349;53.538;8.584;2022-08-20T07:01:17;9.10;;;2.50;;
66521;SDS011;53349;53.538;8.584;2022-08-20T07:03:45;6.07;;;1.90;;
66521;SDS011;53349;53.538;8.584;2022-08-20T07:06:12;8.63;;;2.40;;
66521;SDS011;53349;53.538;8.584;2022-08-20T07:08:38;9.90;;;2.38;;
66521;SDS011;53349;53.538;8.584;2022-08-20T07:11:04;6.45;;;1.90;;
66521;SDS011;53349;53.538;8.584;2022-08-20T07:13:30;8.77;;;1.77;;
66521;SDS011;53349;53.538;8.584;2022-08-20T07:15:56;10.70;;;2.22;;
66521;SDS011;53349;53.538;8.584;2022-08-20T07:18:22;9.80;;;1.70;;
66521;SDS011;53349;53.538;8.584;2022-08-20T07:20:47;5.15;;;1.42;;
66521;SDS011;53349;53.538;8.584;2022-08-20T07:23:13;7.47;;;1.60;;
66521;SDS011;53349;53.538;8.584;2022-08-20T07:25:39;6.43;;;1.60;;
66521;SDS011;53349;53.538;8.584;2022-08-20T07:28:07;5.13;;;1.40;;
66521;SDS011;53349;53.538;8.584;2022-08-20T07:30:37;6.03;;;1.60;;
66521;SDS011;53349;53.538;8.584;2022-08-20T07:33:21;5.32;;;1.38;;
66521;SDS011;53349;53.538;8.584;2022-08-20T07:35:46;7.20;;;1.10;;
66521;SDS011;53349;53.538;8.584;2022-08-20T07:38:19;4.85;;;1.38;;
66521;SDS011;53349;53.538;8.584;2022-08-20T07:40:52;6.97;;;1.30;;
66521;SDS011;53349;53.538;8.584;2022-08-20T07:43:19;6.13;;;1.07;;
66521;SDS011;53349;53.538;8.584;2022-08-20T07:45:51;5.72;;;1.05;;
66521;SDS011;53349;53.538;8.584;2022-08-20T07:48:20;5.35;;;1.20;;
66521;SDS011;53349;53.538;8.584;2022-08-20T07:50:50;5.72;;;1.30;;
66521;SDS011;53349;53.538;8.584;2022-08-20T07:53:17;5.00;;;1.30;;
66521;SDS011;53349;53.538;8.584;2022-08-20T07:55:42;8.03;;;1.30;;
66521;SDS011;53349;53.538;8.584;2022-08-20T07:58:10;4.75;;;1.38;;
66521;SDS011;53349;53.538;8.584;2022-08-20T08:00:38;3.95;;;1.48;;
66521;SDS011;53349;53.538;8.584;2022-08-20T08:03:04;9.00;;;1.47;;
66521;SDS011;53349;53.538;8.584;2022-08-20T08:05:31;5.72;;;1.80;;
66521;SDS011;53349;53.538;8.584;2022-08-20T08:07:58;8.20;;;1.95;;
66521;SDS011;53349;53.538;8.584;2022-08-20T08:10:24;5.13;;;1.50;;
66521;SDS011;53349;53.538;8.584;2022-08-20T08:12:54;5.78;;;1.48;;
66521;SDS011;53349;53.538;8.584;2022-08-20T08:15:24;6.47;;;1.60;;
66521;SDS011;53349;53.538;8.584;2022-08-20T08:17:52;5.03;;;1.30;;
66521;SDS011;53349;53.538;8.584;2022-08-20T08:20:20;7.47;;;1.80;;
66521;SDS011;53349;53.538;8.584;2022-08-20T08:22:45;5.83;;;1.40;;
66521;SDS011;53349;53.538;8.584;2022-08-20T08:25:11;4.90;;;1.20;;
66521;SDS011;53349;53.538;8.584;2022-08-20T08:27:38;5.53;;;1.45;;
66521;SDS011;53349;53.538;8.584;2022-08-20T08:30:05;6.37;;;1.30;;
66521;SDS011;53349;53.538;8.584;2022-08-20T08:32:32;6.60;;;1.20;;
66521;SDS011;53349;53.538;8.584;2022-08-20T08:35:01;4.45;;;1.40;;
66521;SDS011;53349;53.538;8.584;2022-08-20T08:37:28;7.80;;;1.65;;
66521;SDS011;53349;53.538;8.584;2022-08-20T08:39:54;6.10;;;1.40;;
66521;SDS011;53349;53.538;8.584;2022-08-20T08:42:22;6.77;;;1.27;;
66521;SDS011;53349;53.538;8.584;2022-08-20T08:45:09;5.55;;;1.30;;
66521;SDS011;53349;53.538;8.584;2022-08-20T08:47:40;8.23;;;1.60;;
66521;SDS011;53349;53.538;8.584;2022-08-20T08:50:06;5.97;;;1.30;;
66521;SDS011;53349;53.538;8.584;2022-08-20T08:52:39;6.15;;;1.40;;
66521;SDS011;53349;53.538;8.584;2022-08-20T08:55:06;7.97;;;1.70;;
66521;SDS011;53349;53.538;8.584;2022-08-20T08:57:35;5.97;;;1.20;;
66521;SDS011;53349;53.538;8.584;2022-08-20T09:00:06;4.00;;;1.10;;
66521;SDS011;53349;53.538;8.584;2022-08-20T09:02:36;5.50;;;1.30;;
66521;SDS011;53349;53.538;8.584;2022-08-20T09:05:03;7.68;;;1.58;;
66521;SDS011;53349;53.538;8.584;2022-08-20T09:07:38;7.13;;;1.23;;
66521;SDS011;53349;53.538;8.584;2022-08-20T09:10:05;4.38;;;1.10;;
66521;SDS011;53349;53.538;8.584;2022-08-20T09:12:31;4.25;;;1.20;;
66521;SDS011;53349;53.538;8.584;2022-08-20T09:14:57;8.00;;;1.20;;
66521;SDS011;53349;53.538;8.584;2022-08-20T09:17:22;9.20;;;1.70;;
66521;SDS011;53349;53.538;8.584;2022-08-20T09:19:48;6.30;;;1.30;;
66521;SDS011;53349;53.538;8.584;2022-08-20T09:22:17;6.13;;;1.20;;
66521;SDS011;53349;53.538;8.584;2022-08-20T09:24:47;5.07;;;1.17;;
66521;SDS011;53349;53.538;8.584;2022-08-20T09:27:14;5.03;;;1.20;;
66521;SDS011;53349;53.538;8.584;2022-08-20T09:29:39;3.13;;;1.00;;
66521;SDS011;53349;53.538;8.584;2022-08-20T09:32:05;4.00;;;0.80;;
66521;SDS011;53349;53.538;8.584;2022-08-20T09:34:35;3.88;;;1.30;;
66521;SDS011;53349;53.538;8.584;2022-08-20T09:37:11;5.55;;;1.20;;
66521;SDS011;53349;53.538;8.584;2022-08-20T09:39:38;5.13;;;1.00;;
66521;SDS011;53349;53.538;8.584;2022-08-20T09:42:11;3.55;;;1.17;;
66521;SDS011;53349;53.538;8.584;2022-08-20T09:44:42;4.35;;;1.30;;
66521;SDS011;53349;53.538;8.584;2022-08-20T09:47:08;5.33;;;1.20;;
66521;SDS011;53349;53.538;8.584;2022-08-20T09:49:33;4.40;;;1.10;;
66521;SDS011;53349;53.538;8.584;2022-08-20T09:52:01;5.00;;;1.13;;
66521;SDS011;53349;53.538;8.584;2022-08-20T09:54:28;5.35;;;1.10;;
66521;SDS011;53349;53.538;8.584;2022-08-20T09:56:58;8.48;;;1.48;;
66521;SDS011;53349;53.538;8.584;2022-08-20T09:59:26;4.75;;;1.35;;
66521;SDS011;53349;53.538;8.584;2022-08-20T10:01:53;4.70;;;0.90;;
66521;SDS011;53349;53.538;8.584;2022-08-20T10:04:18;3.73;;;0.90;;
66521;SDS011;53349;53.538;8.584;2022-08-20T10:06:44;5.90;;;0.90;;
66521;SDS011;53349;53.538;8.584;2022-08-20T10:09:09;5.35;;;1.17;;
66521;SDS011;53349;53.538;8.584;2022-08-20T10:11:35;5.60;;;1.00;;
66521;SDS011;53349;53.538;8.584;2022-08-20T10:14:00;4.63;;;1.03;;
66521;SDS011;53349;53.538;8.584;2022-08-20T10:16:27;3.10;;;0.90;;
66521;SDS011;53349;53.538;8.584;2022-08-20T10:18:52;5.17;;;0.90;;
66521;SDS011;53349;53.538;8.584;2022-08-20T10:21:18;5.82;;;1.50;;
66521;SDS011;53349;53.538;8.584;2022-08-20T10:23:43;5.73;;;1.30;;
66521;SDS011;53349;53.538;8.584;2022-08-20T10:26:10;5.35;;;1.20;;
66521;SDS011;53349;53.538;8.584;2022-08-20T10:28:36;4.97;;;1.00;;
66521;SDS011;53349;53.538;8.584;2022-08-20T10:31:09;5.20;;;1.13;;
66521;SDS011;53349;53.538;8.584;2022-08-20T10:33:36;4.93;;;1.20;;
66521;SDS011;53349;53.538;8.584;2022-08-20T10:38:36;5.20;;;0.98;;
66521;SDS011;53349;53.538;8.584;2022-08-20T10:41:01;6.20;;;2.27;;
66521;SDS011;53349;53.538;8.584;2022-08-20T10:43:27;5.43;;;1.23;;
66521;SDS011;53349;53.538;8.584;2022-08-20T10:45:53;4.22;;;0.90;;
66521;SDS011;53349;53.538;8.584;2022-08-20T10:48:18;5.80;;;1.10;;
66521;SDS011;53349;53.538;8.584;2022-08-20T10:50:44;5.43;;;1.00;;
66521;SDS011;53349;53.538;8.584;2022-08-20T10:53:09;5.07;;;1.27;;
66521;SDS011;53349;53.538;8.584;2022-08-20T10:55:35;6.53;;;1.20;;
66521;SDS011;53349;53.538;8.584;2022-08-20T10:58:00;3.57;;;1.00;;
66521;SDS011;53349;53.538;8.584;2022-08-20T11:00:29;4.97;;;1.27;;
66521;SDS011;53349;53.538;8.584;2022-08-20T11:02:54;6.20;;;1.23;;
66521;SDS011;53349;53.538;8.584;2022-08-20T11:05:20;4.73;;;1.00;;
66521;SDS011;53349;53.538;8.584;2022-08-20T11:07:45;3.72;;;1.00;;
66521;SDS011;53349;53.538;8.584;2022-08-20T11:10:11;5.27;;;1.37;;
66521;SDS011;53349;53.538;8.584;2022-08-20T11:12:36;4.47;;;0.88;;
66521;SDS011;53349;53.538;8.584;2022-08-20T11:15:02;8.43;;;1.47;;
66521;SDS011;53349;53.538;8.584;2022-08-20T11:17:30;4.32;;;0.82;;
66521;SDS011;53349;53.538;8.584;2022-08-20T11:19:57;4.57;;;0.80;;
66521;SDS011;53349;53.538;8.584;2022-08-20T11:22:23;5.25;;;0.85;;
66521;SDS011;53349;53.538;8.584;2022-08-20T11:24:50;4.55;;;1.40;;
66521;SDS011;53349;53.538;8.584;2022-08-20T11:27:20;5.33;;;1.10;;
66521;SDS011;53349;53.538;8.584;2022-08-20T11:29:57;3.83;;;1.02;;
66521;SDS011;53349;53.538;8.584;2022-08-20T11:32:23;5.70;;;1.05;;
66521;SDS011;53349;53.538;8.584;2022-08-20T11:34:49;3.42;;;0.98;;
66521;SDS011;53349;53.538;8.584;2022-08-20T11:37:15;3.67;;;0.97;;
66521;SDS011;53349;53.538;8.584;2022-08-20T11:39:42;5.25;;;1.08;;
66521;SDS011;53349;53.538;8.584;2022-08-20T11:42:08;3.73;;;1.00;;
66521;SDS011;53349;53.538;8.584;2022-08-20T11:44:34;5.53;;;1.00;;
66521;SDS011;53349;53.538;8.584;2022-08-20T11:47:00;7.90;;;1.33;;
66521;SDS011;53349;53.538;8.584;2022-08-20T11:49:28;5.67;;;1.30;;
66521;SDS011;53349;53.538;8.584;2022-08-20T11:52:02;5.32;;;1.30;;
66521;SDS011;53349;53.538;8.584;2022-08-20T11:54:28;4.40;;;1.40;;
66521;SDS011;53349;53.538;8.584;2022-08-20T11:56:56;4.70;;;1.40;;
66521;SDS011;53349;53.538;8.584;2022-08-20T11:59:22;4.83;;;1.10;;
66521;SDS011;53349;53.538;8.584;2022-08-20T12:01:48;6.55;;;1.25;;
66521;SDS011;53349;53.538;8.584;2022-08-20T12:04:14;4.78;;;1.08;;
66521;SDS011;53349;53.538;8.584;2022-08-20T12:06:39;5.87;;;1.07;;
66521;SDS011;53349;53.538;8.584;2022-08-20T12:09:05;2.77;;;0.80;;
66521;SDS011;53349;53.538;8.584;2022-08-20T12:11:30;4.83;;;1.63;;
66521;SDS011;53349;53.538;8.584;2022-08-20T12:13:56;5.43;;;1.50;;
66521;SDS011;53349;53.538;8.584;2022-08-20T12:16:21;6.47;;;1.43;;
66521;SDS011;53349;53.538;8.584;2022-08-20T12:18:47;4.43;;;1.07;;
66521;SDS011;53349;53.538;8.584;2022-08-20T12:21:13;6.10;;;1.20;;
66521;SDS011;53349;53.538;8.584;2022-08-20T12:23:39;4.10;;;1.00;;
66521;SDS011;53349;53.538;8.584;2022-08-20T12:26:04;5.75;;;1.00;;
66521;SDS011;53349;53.538;8.584;2022-08-20T12:28:30;5.57;;;1.00;;
66521;SDS011;53349;53.538;8.584;2022-08-20T12:30:56;5.18;;;1.20;;
66521;SDS011;53349;53.538;8.584;2022-08-20T12:33:22;4.00;;;0.93;;
66521;SDS011;53349;53.538;8.584;2022-08-20T12:35:47;5.40;;;1.30;;
66521;SDS011;53349;53.538;8.584;2022-08-20T12:38:12;6.20;;;1.50;;
66521;SDS011;53349;53.538;8.584;2022-08-20T12:40:38;6.50;;;1.40;;
66521;SDS011;53349;53.538;8.584;2022-08-20T12:43:04;7.32;;;1.58;;
66521;SDS011;53349;53.538;8.584;2022-08-20T12:45:30;5.50;;;1.20;;
66521;SDS011;53349;53.538;8.584;2022-08-20T12:48:07;6.40;;;1.13;;
66521;SDS011;53349;53.538;8.584;2022-08-20T12:50:35;5.40;;;1.00;;
66521;SDS011;53349;53.538;8.584;2022-08-20T12:53:01;5.35;;;1.20;;
66521;SDS011;53349;53.538;8.584;2022-08-20T12:55:28;4.82;;;1.17;;
66521;SDS011;53349;53.538;8.584;2022-08-20T12:57:56;3.83;;;1.05;;
66521;SDS011;53349;53.538;8.584;2022-08-20T13:02:56;4.97;;;1.00;;
66521;SDS011;53349;53.538;8.584;2022-08-20T13:05:22;5.60;;;1.10;;
66521;SDS011;53349;53.538;8.584;2022-08-20T13:07:48;4.25;;;1.40;;
66521;SDS011;53349;53.538;8.584;2022-08-20T13:10:22;7.00;;;1.48;;
66521;SDS011;53349;53.538;8.584;2022-08-20T13:12:53;5.05;;;1.20;;
66521;SDS011;53349;53.538;8.584;2022-08-20T13:15:19;4.27;;;1.03;;
66521;SDS011;53349;53.538;8.584;2022-08-20T13:17:48;3.67;;;1.00;;
66521;SDS011;53349;53.538;8.584;2022-08-20T13:20:18;4.75;;;0.93;;
66521;SDS011;53349;53.538;8.584;2022-08-20T13:22:44;4.25;;;1.10;;
66521;SDS011;53349;53.538;8.584;2022-08-20T13:25:10;4.57;;;1.43;;
66521;SDS011;53349;53.538;8.584;2022-08-20T13:27:36;4.97;;;1.00;;
66521;SDS011;53349;53.538;8.584;2022-08-20T13:30:05;4.65;;;1.20;;
66521;SDS011;53349;53.538;8.584;2022-08-20T13:32:32;5.97;;;1.40;;
66521;SDS011;53349;53.538;8.584;2022-08-20T13:34:57;4.05;;;1.15;;
66521;SDS011;53349;53.538;8.584;2022-08-20T13:37:24;5.10;;;1.30;;
66521;SDS011;53349;53.538;8.584;2022-08-20T13:39:50;6.68;;;1.27;;
66521;SDS011;53349;53.538;8.584;2022-08-20T13:42:16;3.87;;;1.10;;
66521;SDS011;53349;53.538;8.584;2022-08-20T13:44:41;4.23;;;1.27;;
66521;SDS011;53349;53.538;8.584;2022-08-20T13:49:56;4.22;;;1.10;;
66521;SDS011;53349;53.538;8.584;2022-08-20T13:52:30;6.43;;;1.48;;
66521;SDS011;53349;53.538;8.584;2022-08-20T13:54:56;6.77;;;1.50;;
66521;SDS011;53349;53.538;8.584;2022-08-20T13:57:23;5.85;;;1.48;;
66521;SDS011;53349;53.538;8.584;2022-08-20T13:59:49;5.10;;;1.10;;
66521;SDS011;53349;53.538;8.584;2022-08-20T14:02:17;5.10;;;1.10;;
66521;SDS011;53349;53.538;8.584;2022-08-20T14:04:43;4.55;;;1.55;;
66521;SDS011;53349;53.538;8.584;2022-08-20T14:07:11;4.32;;;1.25;;
66521;SDS011;53349;53.538;8.584;2022-08-20T14:09:49;5.45;;;1.42;;
66521;SDS011;53349;53.538;8.584;2022-08-20T14:12:19;4.17;;;1.20;;
66521;SDS011;53349;53.538;8.584;2022-08-20T14:14:47;5.72;;;1.33;;
66521;SDS011;53349;53.538;8.584;2022-08-20T14:17:21;5.28;;;1.50;;
66521;SDS011;53349;53.538;8.584;2022-08-20T14:19:49;6.20;;;1.10;;
66521;SDS011;53349;53.538;8.584;2022-08-20T14:22:15;3.83;;;1.02;;
66521;SDS011;53349;53.538;8.584;2022-08-20T14:24:44;5.57;;;1.30;;
66521;SDS011;53349;53.538;8.584;2022-08-20T14:27:10;5.57;;;1.48;;
66521;SDS011;53349;53.538;8.584;2022-08-20T14:29:38;3.95;;;1.33;;
66521;SDS011;53349;53.538;8.584;2022-08-20T14:32:04;5.38;;;1.30;;
66521;SDS011;53349;53.538;8.584;2022-08-20T14:34:31;4.93;;;1.05;;
66521;SDS011;53349;53.538;8.584;2022-08-20T14:37:08;4.33;;;1.07;;
66521;SDS011;53349;53.538;8.584;2022-08-20T14:39:42;5.70;;;1.30;;
66521;SDS011;53349;53.538;8.584;2022-08-20T14:42:09;4.38;;;0.98;;
66521;SDS011;53349;53.538;8.584;2022-08-20T14:44:35;4.83;;;1.10;;
66521;SDS011;53349;53.538;8.584;2022-08-20T14:47:15;4.78;;;1.17;;
66521;SDS011;53349;53.538;8.584;2022-08-20T14:49:48;5.43;;;1.15;;
66521;SDS011;53349;53.538;8.584;2022-08-20T14:52:15;4.18;;;0.90;;
66521;SDS011;53349;53.538;8.584;2022-08-20T14:54:41;5.15;;;1.05;;
66521;SDS011;53349;53.538;8.584;2022-08-20T14:57:07;4.70;;;1.30;;